createdAt,value
2018-03-01T00:00:23.095Z,0
2018-03-01T00:01:32.878Z,0
2018-03-01T00:02:42.663Z,0
2018-03-01T00:03:52.445Z,0
2018-03-01T00:05:02.282Z,0
2018-03-01T00:06:11.818Z,0
2018-03-01T00:07:21.609Z,0
2018-03-01T00:08:31.406Z,0
2018-03-01T00:09:41.442Z,0
2018-03-01T00:10:51.283Z,0
2018-03-01T00:12:01.328Z,0
2018-03-01T00:13:10.589Z,0
2018-03-01T00:14:20.660Z,0
2018-03-01T00:15:30.462Z,0
2018-03-01T00:16:40.001Z,0
2018-03-01T00:17:50.085Z,0
2018-03-01T00:19:00.136Z,0
2018-03-01T00:20:09.933Z,0
2018-03-01T00:21:19.462Z,0
2018-03-01T00:22:29.344Z,0
2018-03-01T00:23:38.845Z,0
2018-03-01T00:24:48.367Z,0
2018-03-01T00:25:58.412Z,0
2018-03-01T00:27:08.221Z,0
2018-03-01T00:28:17.735Z,0
2018-03-01T00:29:27.789Z,0
2018-03-01T00:30:37.594Z,0
2018-03-01T00:31:47.402Z,0
2018-03-01T00:32:57.453Z,0
2018-03-01T00:34:07.296Z,0
2018-03-01T00:35:17.081Z,0
2018-03-01T00:36:27.133Z,0
2018-03-01T00:37:37.193Z,0
2018-03-01T00:38:47.241Z,0
2018-03-01T00:39:57.294Z,0
2018-03-01T00:41:06.575Z,0
2018-03-01T00:42:16.106Z,0
2018-03-01T00:43:26.172Z,0
2018-03-01T00:44:36.219Z,0
2018-03-01T00:45:45.743Z,0
2018-03-01T00:46:55.569Z,0
2018-03-01T00:48:05.636Z,0
2018-03-01T00:49:15.414Z,0
2018-03-01T00:50:25.208Z,0
2018-03-01T00:51:35.281Z,0
2018-03-01T00:52:45.082Z,0
2018-03-01T00:53:54.611Z,0
2018-03-01T00:55:04.658Z,0
2018-03-01T00:56:14.195Z,0
2018-03-01T00:57:23.989Z,0
2018-03-01T00:58:34.031Z,0
2018-03-01T00:59:43.843Z,0
2018-03-01T01:00:53.894Z,0
2018-03-01T01:02:03.417Z,0
2018-03-01T01:03:12.934Z,0
2018-03-01T01:04:22.713Z,0
2018-03-01T01:05:32.771Z,0
2018-03-01T01:06:42.835Z,0
2018-03-01T01:07:52.616Z,0
2018-03-01T01:09:02.672Z,0
2018-03-01T01:10:12.463Z,0
2018-03-01T01:11:22.491Z,0
2018-03-01T01:12:32.263Z,0
2018-03-01T01:13:41.773Z,0
2018-03-01T01:14:51.808Z,0
2018-03-01T01:16:01.590Z,0
2018-03-01T01:17:11.647Z,0
2018-03-01T01:18:21.711Z,0
2018-03-01T01:19:30.965Z,0
2018-03-01T01:20:40.747Z,0
2018-03-01T01:21:50.521Z,0
2018-03-01T01:23:00.324Z,0
2018-03-01T01:24:10.371Z,0
2018-03-01T01:25:20.218Z,0
2018-03-01T01:26:30.270Z,0
2018-03-01T01:27:40.305Z,0
2018-03-01T01:28:49.815Z,0
2018-03-01T01:29:59.330Z,0
2018-03-01T01:31:09.368Z,0
2018-03-01T01:32:19.165Z,0
2018-03-01T01:33:28.674Z,0
2018-03-01T01:34:38.503Z,0
2018-03-01T01:35:48.295Z,0
2018-03-01T01:36:58.077Z,0
2018-03-01T01:38:07.866Z,0
2018-03-01T01:39:17.392Z,0
2018-03-01T01:40:27.450Z,0
2018-03-01T01:41:37.489Z,0
2018-03-01T01:42:47.012Z,0
2018-03-01T01:43:56.531Z,0
2018-03-01T01:45:06.312Z,0
2018-03-01T01:46:16.375Z,0
2018-03-01T01:47:26.426Z,0
2018-03-01T01:48:36.278Z,0
2018-03-01T01:49:46.335Z,0
2018-03-01T01:50:56.375Z,0
2018-03-01T01:52:05.899Z,0
2018-03-01T01:53:15.939Z,0
2018-03-01T01:54:25.780Z,0
2018-03-01T01:55:35.580Z,0
2018-03-01T01:56:45.155Z,0
2018-03-01T01:57:55.210Z,0
2018-03-01T01:59:05.053Z,0
2018-03-01T02:00:14.939Z,0
2018-03-01T02:01:24.729Z,0
2018-03-01T02:02:34.518Z,0
2018-03-01T02:03:44.287Z,0
2018-03-01T02:04:54.334Z,0
2018-03-01T02:06:04.403Z,0
2018-03-01T02:07:14.180Z,0
2018-03-01T02:08:24.249Z,0
2018-03-01T02:09:34.349Z,0
2018-03-01T02:10:43.879Z,0
2018-03-01T02:11:53.388Z,0
2018-03-01T02:13:03.422Z,0
2018-03-01T02:14:13.474Z,0
2018-03-01T02:15:23.532Z,0
2018-03-01T02:16:33.312Z,0
2018-03-01T02:17:43.365Z,0
2018-03-01T02:18:53.404Z,0
2018-03-01T02:20:03.179Z,0
2018-03-01T02:21:13.018Z,0
2018-03-01T02:22:23.074Z,0
2018-03-01T02:23:32.857Z,0
2018-03-01T02:24:42.898Z,0
2018-03-01T02:25:52.951Z,0
2018-03-01T02:27:02.209Z,0
2018-03-01T02:28:12.273Z,0
2018-03-01T02:29:22.323Z,0
2018-03-01T02:30:32.376Z,0
2018-03-01T02:31:42.436Z,0
2018-03-01T02:32:52.275Z,0
2018-03-01T02:34:02.355Z,0
2018-03-01T02:35:12.413Z,0
2018-03-01T02:36:22.205Z,0
2018-03-01T02:37:31.990Z,0
2018-03-01T02:38:42.038Z,0
2018-03-01T02:39:52.082Z,0
2018-03-01T02:41:01.876Z,0
2018-03-01T02:42:11.940Z,0
2018-03-01T02:43:21.725Z,0
2018-03-01T02:44:31.758Z,0
2018-03-01T02:45:41.828Z,0
2018-03-01T02:46:51.896Z,0
2018-03-01T02:48:01.413Z,0
2018-03-01T02:49:11.463Z,0
2018-03-01T02:50:21.508Z,0
2018-03-01T02:51:31.022Z,0
2018-03-01T02:52:41.077Z,0
2018-03-01T02:53:50.865Z,0
2018-03-01T02:55:00.641Z,0
2018-03-01T02:56:10.678Z,0
2018-03-01T02:57:20.481Z,0
2018-03-01T02:58:31.000Z,0
2018-03-01T02:59:40.917Z,0
2018-03-01T03:00:50.966Z,0
2018-03-01T03:02:00.753Z,0
2018-03-01T03:03:10.550Z,0
2018-03-01T03:04:20.385Z,0
2018-03-01T03:05:30.449Z,0
2018-03-01T03:06:40.494Z,0
2018-03-01T03:07:50.272Z,0
2018-03-01T03:39:15.949Z,0
2018-03-01T03:40:25.986Z,0
2018-03-01T03:41:36.040Z,0
2018-03-01T03:42:46.088Z,0
2018-03-01T03:43:55.607Z,0
2018-03-01T03:45:05.636Z,0
2018-03-01T03:46:15.416Z,0
2018-03-01T03:47:25.187Z,0
2018-03-01T03:48:35.242Z,0
2018-03-01T03:49:45.026Z,0
2018-03-01T03:50:55.082Z,0
2018-03-01T03:52:05.122Z,0
2018-03-01T03:53:15.171Z,0
2018-03-01T03:54:25.217Z,0
2018-03-01T03:55:35.284Z,0
2018-03-01T03:56:45.311Z,0
2018-03-01T03:57:55.357Z,0
2018-03-01T03:59:05.436Z,0
2018-03-01T04:00:15.472Z,0
2018-03-01T04:01:25.535Z,0
2018-03-01T04:02:35.301Z,0
2018-03-01T04:03:45.165Z,0
2018-03-01T04:04:55.209Z,0
2018-03-01T04:06:05.259Z,0
2018-03-01T04:07:15.043Z,0
2018-03-01T04:08:24.869Z,0
2018-03-01T04:09:34.919Z,0
2018-03-01T04:10:44.700Z,0
2018-03-01T04:11:54.751Z,0
2018-03-01T04:13:04.799Z,0
2018-03-01T04:14:14.583Z,0
2018-03-01T04:15:24.639Z,0
2018-03-01T04:16:34.161Z,0
2018-03-01T04:17:44.219Z,0
2018-03-01T04:18:54.255Z,0
2018-03-01T04:20:04.355Z,0
2018-03-01T04:21:14.124Z,0
2018-03-01T04:22:23.920Z,0
2018-03-01T04:23:33.961Z,0
2018-03-01T04:24:43.742Z,0
2018-03-01T04:25:53.325Z,0
2018-03-01T04:27:03.371Z,0
2018-03-01T04:28:13.158Z,0
2018-03-01T04:29:22.951Z,0
2018-03-01T04:30:32.996Z,0
2018-03-01T04:31:42.768Z,0
2018-03-01T04:32:52.037Z,0
2018-03-01T04:34:01.817Z,0
2018-03-01T04:35:11.615Z,0
2018-03-01T04:36:21.126Z,0
2018-03-01T04:37:30.899Z,0
2018-03-01T04:38:40.962Z,0
2018-03-01T04:39:51.016Z,0
2018-03-01T04:41:01.079Z,0
2018-03-01T04:42:11.145Z,0
2018-03-01T04:43:21.185Z,0
2018-03-01T04:44:30.972Z,0
2018-03-01T04:45:41.028Z,0
2018-03-01T04:46:51.061Z,0
2018-03-01T04:48:01.133Z,0
2018-03-01T04:49:11.247Z,0
2018-03-01T04:50:21.332Z,0
2018-03-01T04:51:31.398Z,0
2018-03-01T04:52:40.927Z,0
2018-03-01T04:53:50.958Z,0
2018-03-01T04:55:00.484Z,0
2018-03-01T04:56:10.527Z,0
2018-03-01T04:57:20.077Z,0
2018-03-01T04:58:29.924Z,0
2018-03-01T04:59:39.969Z,0
2018-03-01T05:00:49.814Z,0
2018-03-01T05:01:59.875Z,0
2018-03-01T05:03:09.918Z,0
2018-03-01T05:04:19.703Z,0
2018-03-01T05:05:29.469Z,0
2018-03-01T05:06:39.566Z,0
2018-03-01T05:07:49.631Z,0
2018-03-01T05:08:59.679Z,0
2018-03-01T05:10:09.468Z,0
2018-03-01T05:11:19.519Z,0
2018-03-01T05:12:29.312Z,0
2018-03-01T05:13:39.354Z,0
2018-03-01T05:14:49.416Z,0
2018-03-01T05:15:59.510Z,0
2018-03-01T05:17:09.289Z,0
2018-03-01T05:18:19.078Z,0
2018-03-01T05:19:28.880Z,0
2018-03-01T05:20:38.678Z,0
2018-03-01T05:21:48.735Z,0
2018-03-01T05:22:58.779Z,0
2018-03-01T05:24:08.557Z,0
2018-03-01T05:25:18.628Z,0
2018-03-01T05:26:28.422Z,0
2018-03-01T05:27:38.482Z,0
2018-03-01T05:28:48.544Z,0
2018-03-01T05:29:58.317Z,0
2018-03-01T05:31:08.109Z,0
2018-03-01T05:32:18.155Z,0
2018-03-01T05:33:28.216Z,0
2018-03-01T05:34:37.751Z,0
2018-03-01T05:35:47.560Z,5
2018-03-01T05:36:57.363Z,5
2018-03-01T05:38:07.426Z,5
2018-03-01T05:39:17.474Z,5
2018-03-01T05:40:27.767Z,5
2018-03-01T05:41:37.870Z,5
2018-03-01T05:42:47.653Z,5
2018-03-01T05:43:57.693Z,10
2018-03-01T05:45:07.736Z,10
2018-03-01T05:46:17.569Z,10
2018-03-01T05:47:27.616Z,10
2018-03-01T05:48:37.649Z,10
2018-03-01T05:49:47.741Z,15
2018-03-01T05:50:57.819Z,15
2018-03-01T05:52:07.858Z,15
2018-03-01T05:53:17.696Z,15
2018-03-01T05:54:27.472Z,20
2018-03-01T05:55:37.268Z,20
2018-03-01T05:56:47.323Z,20
2018-03-01T05:57:56.864Z,20
2018-03-01T05:59:06.915Z,25
2018-03-01T06:00:16.180Z,25
2018-03-01T06:01:26.238Z,25
2018-03-01T06:02:36.106Z,30
2018-03-01T06:03:45.909Z,30
2018-03-01T06:04:55.740Z,30
2018-03-01T06:06:05.786Z,35
2018-03-01T06:07:15.566Z,35
2018-03-01T06:08:25.085Z,35
2018-03-01T06:09:35.261Z,35
2018-03-01T06:10:45.368Z,40
2018-03-01T06:11:55.175Z,40
2018-03-01T06:13:04.952Z,40
2018-03-01T06:14:15.013Z,40
2018-03-01T06:15:25.058Z,45
2018-03-01T06:16:34.835Z,45
2018-03-01T06:17:44.889Z,45
2018-03-01T06:18:55.009Z,45
2018-03-01T06:20:05.040Z,45
2018-03-01T06:21:14.557Z,45
2018-03-01T06:22:24.600Z,50
2018-03-01T06:23:34.394Z,50
2018-03-01T06:24:44.436Z,50
2018-03-01T06:25:54.226Z,50
2018-03-01T06:27:04.020Z,50
2018-03-01T06:28:13.844Z,55
2018-03-01T06:29:23.880Z,55
2018-03-01T06:30:33.659Z,55
2018-03-01T06:31:43.446Z,60
2018-03-01T06:32:53.487Z,60
2018-03-01T06:34:03.525Z,60
2018-03-01T06:35:13.614Z,60
2018-03-01T06:36:23.668Z,65
2018-03-01T06:37:33.205Z,65
2018-03-01T06:38:43.251Z,65
2018-03-01T06:39:53.303Z,70
2018-03-01T06:41:03.089Z,70
2018-03-01T06:42:13.126Z,70
2018-03-01T06:43:23.181Z,75
2018-03-01T06:44:32.969Z,75
2018-03-01T06:45:43.035Z,80
2018-03-01T06:46:52.824Z,80
2018-03-01T06:48:02.886Z,80
2018-03-01T06:49:13.082Z,80
2018-03-01T06:50:23.137Z,80
2018-03-01T06:51:32.674Z,85
2018-03-01T06:52:42.713Z,85
2018-03-01T06:53:52.489Z,85
2018-03-01T06:55:02.048Z,85
2018-03-01T06:56:11.886Z,85
2018-03-01T06:57:21.780Z,90
2018-03-01T06:58:31.837Z,90
2018-03-01T06:59:41.612Z,90
2018-03-01T07:00:51.128Z,95
2018-03-01T07:02:01.186Z,95
2018-03-01T07:03:11.004Z,95
2018-03-01T07:04:21.058Z,95
2018-03-01T07:05:30.862Z,95
2018-03-01T07:06:40.921Z,100
2018-03-01T07:07:50.716Z,100
2018-03-01T07:09:00.810Z,100
2018-03-01T07:10:10.584Z,105
2018-03-01T07:11:20.881Z,105
2018-03-01T07:12:30.683Z,105
2018-03-01T07:13:40.747Z,105
2018-03-01T07:14:50.534Z,105
2018-03-01T07:16:00.573Z,105
2018-03-01T07:17:10.621Z,105
2018-03-01T07:18:20.416Z,110
2018-03-01T07:19:30.482Z,110
2018-03-01T07:20:40.545Z,110
2018-03-01T07:21:50.332Z,115
2018-03-01T07:23:00.404Z,105
2018-03-01T07:24:10.202Z,110
2018-03-01T07:25:19.726Z,110
2018-03-01T07:26:29.344Z,115
2018-03-01T07:27:38.621Z,120
2018-03-01T07:28:48.663Z,120
2018-03-01T07:29:58.449Z,125
2018-03-01T07:31:08.239Z,125
2018-03-01T07:32:18.096Z,120
2018-03-01T07:33:27.892Z,120
2018-03-01T07:34:37.974Z,125
2018-03-01T07:35:47.241Z,125
2018-03-01T07:36:57.085Z,125
2018-03-01T07:38:06.947Z,130
2018-03-01T07:39:16.203Z,125
2018-03-01T07:40:26.014Z,125
2018-03-01T07:41:36.055Z,130
2018-03-01T07:42:46.117Z,130
2018-03-01T07:43:55.904Z,130
2018-03-01T07:45:05.953Z,140
2018-03-01T07:46:15.947Z,135
2018-03-01T07:47:26.009Z,135
2018-03-01T07:48:35.527Z,130
2018-03-01T07:49:45.310Z,135
2018-03-01T07:50:55.105Z,140
2018-03-01T07:52:05.163Z,140
2018-03-01T07:53:15.209Z,140
2018-03-01T07:54:25.274Z,140
2018-03-01T07:55:35.082Z,145
2018-03-01T07:56:45.128Z,145
2018-03-01T07:57:55.195Z,145
2018-03-01T07:59:04.737Z,145
2018-03-01T08:00:14.793Z,145
2018-03-01T08:01:24.855Z,145
2018-03-01T08:02:34.392Z,145
2018-03-01T08:03:43.922Z,150
2018-03-01T08:04:53.990Z,150
2018-03-01T08:06:03.788Z,150
2018-03-01T08:07:13.308Z,150
2018-03-01T08:08:23.117Z,150
2018-03-01T08:09:33.200Z,150
2018-03-01T08:10:42.993Z,155
2018-03-01T08:11:53.061Z,155
2018-03-01T08:13:02.584Z,155
2018-03-01T08:14:12.128Z,155
2018-03-01T08:15:21.914Z,155
2018-03-01T08:16:31.697Z,155
2018-03-01T08:17:40.975Z,155
2018-03-01T08:18:50.748Z,160
2018-03-01T08:20:00.540Z,165
2018-03-01T08:21:10.350Z,160
2018-03-01T08:22:20.136Z,160
2018-03-01T08:23:30.193Z,170
2018-03-01T08:24:40.244Z,165
2018-03-01T08:25:50.306Z,165
2018-03-01T08:27:00.378Z,165
2018-03-01T08:28:10.461Z,170
2018-03-01T08:29:20.276Z,175
2018-03-01T08:30:30.426Z,170
2018-03-01T08:31:40.210Z,175
2018-03-01T08:32:50.260Z,170
2018-03-01T08:34:00.300Z,170
2018-03-01T08:35:10.400Z,180
2018-03-01T08:36:20.514Z,175
2018-03-01T08:37:30.414Z,180
2018-03-01T08:38:40.472Z,180
2018-03-01T08:39:50.529Z,175
2018-03-01T08:41:00.586Z,185
2018-03-01T08:42:10.427Z,180
2018-03-01T08:43:20.468Z,185
2018-03-01T08:44:30.275Z,180
2018-03-01T08:45:40.096Z,185
2018-03-01T08:46:50.181Z,190
2018-03-01T08:48:00.230Z,190
2018-03-01T08:49:10.290Z,190
2018-03-01T08:50:20.094Z,195
2018-03-01T08:51:29.886Z,195
2018-03-01T08:52:39.416Z,195
2018-03-01T08:53:49.522Z,195
2018-03-01T08:54:59.625Z,195
2018-03-01T08:56:09.432Z,200
2018-03-01T08:57:19.226Z,205
2018-03-01T08:58:29.299Z,205
2018-03-01T08:59:38.596Z,210
2018-03-01T09:00:48.398Z,210
2018-03-01T09:01:58.475Z,210
2018-03-01T09:03:08.259Z,210
2018-03-01T09:04:18.337Z,210
2018-03-01T09:05:28.612Z,215
2018-03-01T09:06:38.659Z,215
2018-03-01T09:07:48.191Z,215
2018-03-01T09:08:57.717Z,215
2018-03-01T09:10:07.936Z,220
2018-03-01T09:11:17.778Z,220
2018-03-01T09:12:27.837Z,220
2018-03-01T09:13:37.886Z,220
2018-03-01T09:14:47.942Z,220
2018-03-01T09:15:57.486Z,230
2018-03-01T09:17:07.025Z,230
2018-03-01T09:18:16.817Z,230
2018-03-01T09:19:26.651Z,230
2018-03-01T09:20:36.461Z,230
2018-03-01T09:21:46.513Z,230
2018-03-01T09:22:56.310Z,230
2018-03-01T09:24:06.369Z,230
2018-03-01T09:25:16.434Z,235
2018-03-01T09:26:26.499Z,230
2018-03-01T09:27:36.557Z,230
2018-03-01T09:28:46.682Z,225
2018-03-01T09:29:55.953Z,230
2018-03-01T09:31:05.752Z,235
2018-03-01T09:32:15.559Z,235
2018-03-01T09:33:25.610Z,235
2018-03-01T09:34:35.735Z,235
2018-03-01T09:35:45.811Z,235
2018-03-01T09:36:55.899Z,235
2018-03-01T09:38:05.966Z,230
2018-03-01T09:39:15.778Z,230
2018-03-01T09:40:26.171Z,225
2018-03-01T09:41:36.223Z,230
2018-03-01T09:42:46.296Z,230
2018-03-01T09:43:56.350Z,230
2018-03-01T09:45:06.172Z,240
2018-03-01T09:46:16.011Z,235
2018-03-01T09:47:26.073Z,240
2018-03-01T09:48:35.610Z,240
2018-03-01T09:49:45.685Z,245
2018-03-01T09:50:55.479Z,245
2018-03-01T09:52:05.326Z,260
2018-03-01T09:53:15.384Z,245
2018-03-01T09:54:25.476Z,255
2018-03-01T09:55:35.555Z,245
2018-03-01T09:56:45.631Z,250
2018-03-01T09:57:55.725Z,245
2018-03-01T09:59:05.821Z,250
2018-03-01T10:00:15.353Z,250
2018-03-01T10:01:25.192Z,250
2018-03-01T10:02:35.249Z,245
2018-03-01T10:03:45.125Z,245
2018-03-01T10:04:54.948Z,240
2018-03-01T10:06:04.758Z,245
2018-03-01T10:07:14.364Z,245
2018-03-01T10:08:24.172Z,245
2018-03-01T10:09:34.280Z,245
2018-03-01T10:10:44.565Z,245
2018-03-01T10:11:54.405Z,235
2018-03-01T10:13:04.220Z,245
2018-03-01T10:14:13.760Z,235
2018-03-01T10:15:23.348Z,215
2018-03-01T10:16:32.907Z,235
2018-03-01T10:17:42.436Z,230
2018-03-01T10:18:51.737Z,220
2018-03-01T10:20:01.798Z,230
2018-03-01T10:21:11.883Z,235
2018-03-01T10:22:21.690Z,235
2018-03-01T10:23:31.501Z,230
2018-03-01T10:24:41.306Z,240
2018-03-01T10:25:51.379Z,230
2018-03-01T10:27:01.452Z,215
2018-03-01T10:28:11.273Z,220
2018-03-01T10:29:21.081Z,220
2018-03-01T10:30:30.880Z,225
2018-03-01T10:31:40.671Z,225
2018-03-01T10:32:50.740Z,215
2018-03-01T10:34:00.540Z,225
2018-03-01T10:35:10.328Z,235
2018-03-01T10:36:19.864Z,230
2018-03-01T10:37:29.955Z,235
2018-03-01T10:38:40.058Z,225
2018-03-01T10:39:50.142Z,200
2018-03-01T10:41:00.249Z,250
2018-03-01T10:42:10.068Z,260
2018-03-01T10:43:19.614Z,260
2018-03-01T10:44:39.740Z,245
2018-03-01T10:45:49.599Z,250
2018-03-01T10:46:59.679Z,235
2018-03-01T10:48:09.754Z,230
2018-03-01T10:49:19.568Z,235
2018-03-01T10:50:29.631Z,220
2018-03-01T10:51:39.441Z,225
2018-03-01T10:52:56.274Z,220
2018-03-01T10:54:05.945Z,195
2018-03-01T10:55:15.578Z,215
2018-03-01T10:56:25.377Z,225
2018-03-01T10:57:35.205Z,195
2018-03-01T10:58:45.000Z,210
2018-03-01T10:59:55.090Z,205
2018-03-01T11:01:05.188Z,195
2018-03-01T11:02:15.270Z,205
2018-03-01T11:03:25.375Z,195
2018-03-01T11:04:35.229Z,210
2018-03-01T11:05:44.764Z,215
2018-03-01T11:06:54.338Z,195
2018-03-01T11:08:04.161Z,205
2018-03-01T11:09:13.967Z,210
2018-03-01T11:10:23.784Z,195
2018-03-01T11:11:33.618Z,205
2018-03-01T11:12:43.501Z,165
2018-03-01T11:13:53.585Z,170
2018-03-01T11:15:03.458Z,210
2018-03-01T11:16:13.537Z,185
2018-03-01T11:17:23.445Z,200
2018-03-01T11:18:33.612Z,160
2018-03-01T11:19:43.150Z,190
2018-03-01T11:20:52.950Z,205
2018-03-01T11:22:02.525Z,205
2018-03-01T11:23:12.391Z,215
2018-03-01T11:24:21.877Z,170
2018-03-01T11:25:31.414Z,165
2018-03-01T11:26:41.524Z,180
2018-03-01T11:27:51.589Z,180
2018-03-01T11:29:01.804Z,215
2018-03-01T11:30:11.657Z,200
2018-03-01T11:31:21.492Z,215
2018-03-01T11:32:31.280Z,230
2018-03-01T11:33:41.336Z,225
2018-03-01T11:34:51.658Z,220
2018-03-01T11:36:01.513Z,220
2018-03-01T11:37:11.569Z,205
2018-03-01T11:38:21.130Z,220
2018-03-01T11:39:31.185Z,225
2018-03-01T11:40:41.235Z,245
2018-03-01T11:41:51.306Z,225
2018-03-01T11:43:01.375Z,215
2018-03-01T11:44:10.901Z,215
2018-03-01T11:45:20.977Z,185
2018-03-01T11:46:30.762Z,170
2018-03-01T11:47:40.853Z,190
2018-03-01T11:48:50.655Z,190
2018-03-01T11:50:00.718Z,165
2018-03-01T11:51:10.829Z,160
2018-03-01T11:52:20.364Z,160
2018-03-01T11:53:30.225Z,160
2018-03-01T11:54:40.308Z,165
2018-03-01T11:55:49.861Z,165
2018-03-01T11:56:59.933Z,165
2018-03-01T11:58:09.759Z,180
2018-03-01T11:59:19.875Z,170
2018-03-01T12:00:29.974Z,165
2018-03-01T12:01:39.815Z,170
2018-03-01T12:02:49.642Z,165
2018-03-01T12:03:59.481Z,160
2018-03-01T12:05:09.608Z,160
2018-03-01T12:06:19.437Z,170
2018-03-01T12:07:29.560Z,170
2018-03-01T12:08:39.659Z,165
2018-03-01T12:09:49.756Z,175
2018-03-01T12:10:59.684Z,165
2018-03-01T12:12:09.509Z,165
2018-03-01T12:13:19.313Z,165
2018-03-01T12:14:29.403Z,175
2018-03-01T12:15:39.486Z,180
2018-03-01T12:16:49.682Z,185
2018-03-01T12:17:59.764Z,190
2018-03-01T12:19:09.579Z,195
2018-03-01T12:20:19.639Z,190
2018-03-01T12:21:29.731Z,180
2018-03-01T12:22:39.805Z,165
2018-03-01T12:23:49.862Z,150
2018-03-01T12:24:59.658Z,145
2018-03-01T12:26:09.745Z,145
2018-03-01T12:27:19.848Z,140
2018-03-01T12:28:30.001Z,130
2018-03-01T12:29:39.841Z,130
2018-03-01T12:30:49.930Z,120
2018-03-01T12:32:00.024Z,120
2018-03-01T12:33:10.108Z,120
2018-03-01T12:34:20.252Z,120
2018-03-01T12:35:30.314Z,120
2018-03-01T12:36:40.134Z,125
2018-03-01T12:37:50.199Z,125
2018-03-01T12:38:59.999Z,125
2018-03-01T12:40:10.136Z,125
2018-03-01T12:41:19.936Z,130
2018-03-01T12:42:30.378Z,130
2018-03-01T12:43:42.105Z,130
2018-03-01T12:44:54.151Z,130
2018-03-01T12:46:12.068Z,125
2018-03-01T12:47:29.536Z,125
2018-03-01T12:48:47.397Z,130
2018-03-01T12:49:59.130Z,135
2018-03-01T12:51:09.288Z,135
2018-03-01T12:52:19.425Z,125
2018-03-01T12:53:29.515Z,130
2018-03-01T12:54:39.592Z,145
2018-03-01T12:55:49.659Z,155
2018-03-01T12:56:59.763Z,160
2018-03-01T12:58:09.820Z,160
2018-03-01T12:59:19.598Z,155
2018-03-01T13:00:29.410Z,145
2018-03-01T13:01:39.497Z,125
2018-03-01T13:02:49.639Z,125
2018-03-01T13:03:59.708Z,120
2018-03-01T13:05:09.797Z,125
2018-03-01T13:06:19.869Z,135
2018-03-01T13:07:29.967Z,125
2018-03-01T13:08:39.783Z,120
2018-03-01T13:09:49.838Z,120
2018-03-01T13:10:59.660Z,125
2018-03-01T13:12:09.453Z,130
2018-03-01T13:13:19.540Z,125
2018-03-01T13:14:29.662Z,115
2018-03-01T13:15:39.761Z,105
2018-03-01T13:16:49.836Z,95
2018-03-01T13:17:59.652Z,100
2018-03-01T13:19:09.736Z,140
2018-03-01T13:20:19.610Z,145
2018-03-01T13:21:29.430Z,140
2018-03-01T13:22:38.966Z,130
2018-03-01T13:23:49.071Z,115
2018-03-01T13:24:59.144Z,105
2018-03-01T13:26:09.349Z,115
2018-03-01T13:27:19.177Z,115
2018-03-01T13:28:29.254Z,110
2018-03-01T13:29:39.388Z,120
2018-03-01T13:30:49.213Z,120
2018-03-01T13:31:59.032Z,105
2018-03-01T13:33:09.107Z,100
2018-03-01T13:34:18.707Z,90
2018-03-01T13:35:28.771Z,90
2018-03-01T13:36:38.325Z,100
2018-03-01T13:37:48.150Z,105
2018-03-01T13:39:07.815Z,105
2018-03-01T13:40:17.904Z,95
2018-03-01T13:41:28.003Z,90
2018-03-01T13:42:38.103Z,105
2018-03-01T13:43:48.196Z,100
2018-03-01T13:44:58.334Z,85
2018-03-01T13:46:08.169Z,90
2018-03-01T13:47:17.972Z,85
2018-03-01T13:48:27.512Z,85
2018-03-01T13:49:37.059Z,80
2018-03-01T13:50:47.187Z,80
2018-03-01T13:51:56.469Z,85
2018-03-01T13:53:06.572Z,75
2018-03-01T13:54:16.666Z,80
2018-03-01T13:55:26.741Z,80
2018-03-01T13:56:36.570Z,70
2018-03-01T13:57:46.109Z,70
2018-03-01T13:58:55.915Z,70
2018-03-01T14:00:05.966Z,65
2018-03-01T14:01:16.082Z,70
2018-03-01T14:02:26.167Z,70
2018-03-01T14:03:35.968Z,60
2018-03-01T14:04:46.039Z,65
2018-03-01T14:05:55.600Z,60
2018-03-01T14:07:05.671Z,70
2018-03-01T14:08:15.517Z,65
2018-03-01T14:09:25.338Z,60
2018-03-01T14:10:35.167Z,70
2018-03-01T14:11:44.955Z,70
2018-03-01T14:12:54.748Z,80
2018-03-01T14:14:04.544Z,80
2018-03-01T14:15:14.624Z,70
2018-03-01T14:16:24.742Z,65
2018-03-01T14:17:34.003Z,65
2018-03-01T14:18:44.101Z,55
2018-03-01T14:19:53.896Z,50
2018-03-01T14:21:03.959Z,55
2018-03-01T14:22:13.775Z,65
2018-03-01T14:23:23.583Z,60
2018-03-01T14:24:33.705Z,55
2018-03-01T14:25:43.831Z,60
2018-03-01T14:26:53.647Z,75
2018-03-01T14:28:02.926Z,75
2018-03-01T14:29:12.976Z,75
2018-03-01T14:30:23.032Z,70
2018-03-01T14:31:32.576Z,60
2018-03-01T14:32:42.413Z,55
2018-03-01T14:33:52.465Z,65
2018-03-01T14:35:01.998Z,70
2018-03-01T14:36:12.068Z,70
2018-03-01T14:37:22.206Z,70
2018-03-01T14:38:32.344Z,65
2018-03-01T14:39:42.423Z,60
2018-03-01T14:40:51.714Z,60
2018-03-01T14:42:01.504Z,65
2018-03-01T14:43:11.322Z,65
2018-03-01T14:44:21.388Z,55
2018-03-01T14:45:31.455Z,55
2018-03-01T14:46:41.276Z,55
2018-03-01T14:47:51.347Z,60
2018-03-01T14:49:01.216Z,60
2018-03-01T14:50:11.068Z,65
2018-03-01T14:51:21.141Z,55
2018-03-01T14:52:31.212Z,55
2018-03-01T14:53:41.023Z,50
2018-03-01T14:54:51.122Z,50
2018-03-01T14:56:01.285Z,55
2018-03-01T14:57:10.800Z,55
2018-03-01T14:58:20.060Z,55
2018-03-01T14:59:29.607Z,55
2018-03-01T15:00:39.678Z,60
2018-03-01T15:01:49.802Z,60
2018-03-01T15:02:59.886Z,60
2018-03-01T15:04:09.953Z,55
2018-03-01T15:05:19.258Z,55
2018-03-01T15:06:29.052Z,55
2018-03-01T15:07:39.101Z,50
2018-03-01T15:08:48.891Z,50
2018-03-01T15:09:58.715Z,50
2018-03-01T15:11:08.521Z,45
2018-03-01T15:12:18.335Z,40
2018-03-01T15:13:28.147Z,40
2018-03-01T15:14:37.950Z,40
2018-03-01T15:15:47.756Z,40
2018-03-01T15:16:57.575Z,40
2018-03-01T15:18:07.106Z,35
2018-03-01T15:19:16.967Z,35
2018-03-01T15:20:27.052Z,35
2018-03-01T15:21:36.868Z,40
2018-03-01T15:22:46.963Z,40
2018-03-01T15:23:57.035Z,40
2018-03-01T15:25:06.860Z,40
2018-03-01T15:26:16.945Z,35
2018-03-01T15:27:26.753Z,35
2018-03-01T15:28:36.544Z,35
2018-03-01T15:29:46.356Z,35
2018-03-01T15:30:56.469Z,30
2018-03-01T15:32:06.555Z,35
2018-03-01T15:33:16.622Z,30
2018-03-01T15:34:26.692Z,30
2018-03-01T15:35:36.771Z,30
2018-03-01T15:36:46.615Z,25
2018-03-01T15:37:56.684Z,25
2018-03-01T15:39:06.621Z,25
2018-03-01T15:40:16.430Z,25
2018-03-01T15:41:26.257Z,25
2018-03-01T15:42:36.062Z,25
2018-03-01T15:43:46.159Z,20
2018-03-01T15:44:56.353Z,20
2018-03-01T15:46:06.432Z,15
2018-03-01T15:47:16.291Z,15
2018-03-01T15:48:26.113Z,15
2018-03-01T15:49:36.426Z,15
2018-03-01T15:50:46.214Z,15
2018-03-01T15:51:55.768Z,15
2018-03-01T15:53:05.313Z,15
2018-03-01T15:54:15.154Z,10
2018-03-01T15:55:25.171Z,10
2018-03-01T15:56:35.014Z,10
2018-03-01T15:57:44.846Z,10
2018-03-01T15:58:55.028Z,10
2018-03-01T16:00:04.859Z,10
2018-03-01T16:01:14.154Z,10
2018-03-01T16:02:24.304Z,10
2018-03-01T16:03:34.106Z,5
2018-03-01T16:04:43.928Z,5
2018-03-01T16:05:53.760Z,5
2018-03-01T16:07:03.576Z,5
2018-03-01T16:08:13.695Z,5
2018-03-01T16:09:23.767Z,5
2018-03-01T16:10:33.609Z,5
2018-03-01T16:11:43.681Z,5
2018-03-01T16:12:53.738Z,5
2018-03-01T16:14:03.594Z,5
2018-03-01T16:15:13.669Z,5
2018-03-01T16:16:23.738Z,5
2018-03-01T16:17:33.821Z,5
2018-03-01T16:18:43.881Z,0
2018-03-01T16:19:53.949Z,0
2018-03-01T16:21:04.053Z,0
2018-03-01T16:22:14.130Z,0
2018-03-01T16:23:23.686Z,0
2018-03-01T16:24:33.698Z,0
2018-03-01T16:25:43.829Z,0
2018-03-01T16:26:53.628Z,0
2018-03-01T16:28:03.697Z,0
2018-03-01T16:29:13.764Z,0
2018-03-01T16:30:23.867Z,0
2018-03-01T16:31:33.990Z,0
2018-03-01T16:32:44.075Z,0
2018-03-01T16:33:54.129Z,0
2018-03-01T16:35:04.207Z,0
2018-03-01T16:36:14.289Z,0
2018-03-01T16:37:24.418Z,0
2018-03-01T16:38:34.507Z,0
2018-03-01T16:39:44.295Z,0
2018-03-01T16:40:54.382Z,0
2018-03-01T16:42:04.451Z,0
2018-03-01T16:43:14.326Z,0
2018-03-01T16:44:24.423Z,0
2018-03-01T16:45:34.475Z,0
2018-03-01T16:46:44.686Z,0
2018-03-01T16:47:54.765Z,0
2018-03-01T16:49:04.848Z,0
2018-03-01T16:50:14.661Z,0
2018-03-01T16:51:24.751Z,0
2018-03-01T16:52:34.573Z,0
2018-03-01T16:53:44.393Z,0
2018-03-01T16:54:54.255Z,0
2018-03-01T16:56:04.342Z,0
2018-03-01T16:57:14.396Z,0
2018-03-01T16:58:24.476Z,0
2018-03-01T16:59:34.537Z,0
2018-03-01T17:00:44.144Z,0
2018-03-01T17:01:53.932Z,0
2018-03-01T17:03:03.739Z,0
2018-03-01T17:04:13.533Z,0
2018-03-01T17:05:23.616Z,0
2018-03-01T17:06:33.678Z,0
2018-03-01T17:07:43.772Z,0